This is the latest recevied weather packets stored in our database for station/object KB4RFE. If no packets are shown the sender has not sent any weather packets the latest 10 day(s).
| Time | Temp. | Humidity | Pressure | Rain* | Wind** | Luminosity | Snow |
|---|---|---|---|---|---|---|---|
| 1777583816 | 21.67° C | 80% | 1011.8 hPa | 0.51 mm | - | 197 W/m² | - |
| 1777583511 | 21.67° C | 81% | 1011.8 hPa | 1.27 mm | - | 180 W/m² | - |
| 1777583206 | 21.67° C | 81% | 1011.8 hPa | 0.51 mm | - | 191 W/m² | - |
| 1777582901 | 21.67° C | 80% | 1011.7 hPa | 0 mm | - | 247 W/m² | - |
| 1777582599 | 21.67° C | 81% | 1011.5 hPa | 0 mm | - | 233 W/m² | - |
| 1777582299 | 21.67° C | 81% | 1011.7 hPa | 0 mm | - | 232 W/m² | - |
| 1777581997 | 21.67° C | 82% | 1011.7 hPa | 0.51 mm | - | 229 W/m² | - |
| 1777581692 | 21.67° C | 80% | 1011.7 hPa | 0.51 mm | - | 285 W/m² | - |
| 1777581386 | 22.22° C | 80% | 1011.9 hPa | 0 mm | - | 269 W/m² | - |
| 1777581087 | 21.67° C | 82% | 1011.8 hPa | 0 mm | - | 526 W/m² | - |
| 1777580786 | 21.67° C | 81% | 1011.8 hPa | 0 mm | - | 507 W/m² | - |
| 1777580483 | 21.67° C | 84% | 1011.7 hPa | 0.51 mm | - | 631 W/m² | - |
| 1777580183 | 21.67° C | 84% | 1011.9 hPa | 0.51 mm | - | 529 W/m² | - |
| 1777579881 | 21.11° C | 86% | 1012 hPa | 0 mm | - | 499 W/m² | - |
| 1777579580 | 20.56° C | 87% | 1012.1 hPa | 0.51 mm | - | 472 W/m² | - |
| 1777579280 | 20.56° C | 88% | 1012 hPa | 0.51 mm | - | 284 W/m² | - |
| 1777578976 | 20.56° C | 88% | 1012.1 hPa | 0.51 mm | - | 167 W/m² | - |
| 1777578671 | 20.56° C | 87% | 1012 hPa | 0.51 mm | - | 139 W/m² | - |
| 1777578370 | 20.56° C | 87% | 1011.9 hPa | 2.29 mm | - | 216 W/m² | - |
| 1777578066 | 20.56° C | 86% | 1011.9 hPa | 3.05 mm | - | 263 W/m² | - |
| 1777577761 | 21.11° C | 84% | 1012.2 hPa | 3.56 mm | - | 124 W/m² | - |
| 1777577458 | 21.11° C | 83% | 1012.3 hPa | 4.83 mm | - | 109 W/m² | - |
| 1777577155 | 21.67° C | 78% | 1012.4 hPa | 3.56 mm | - | 89 W/m² | - |
| 1777576851 | 22.22° C | 75% | 1012.5 hPa | 0.51 mm | - | 71 W/m² | - |
| 1777576550 | 22.78° C | 75% | 1012.5 hPa | 0 mm | - | 65 W/m² | - |
* Rain latest hour (hover to see other rain measurements)
** Current wind speed in m/s (hover to see current wind gust speed)